Time;durP1;ratioP1;P1;durP2;ratioP2;P2;SDS_P1;SDS_P2;PMS_P1;PMS_P2;Temp;Humidity;BMP_temperature;BMP_pressure;BME280_temperature;BME280_humidity;BME280_pressure;Samples;Min_cycle;Max_cycle;Signal;HPM_P1;HPM_P2
2021/08/16 00:02:50;;;;;;;3.17;2.47;;;18.60;99.90;;;16.29;100.00;100598.97;2589666;30;133874;-82
2021/08/16 00:06:03;;;;;;;3.67;2.80;;;18.60;99.90;;;16.27;100.00;100609.09;2562712;30;133793;-81
2021/08/16 00:09:18;;;;;;;3.50;2.67;;;18.60;99.90;;;16.15;100.00;100607.91;2573873;30;132974;-83
2021/08/16 00:12:32;;;;;;;5.03;2.80;;;18.60;99.90;;;16.09;100.00;100619.41;2563024;30;133391;-80
2021/08/16 00:15:49;;;;;;;4.95;3.42;;;18.50;99.90;;;16.01;100.00;100623.06;2573998;30;135022;-83
2021/08/16 00:19:03;;;;;;;3.05;2.67;;;18.40;99.90;;;16.08;100.00;100645.56;2574354;30;135120;-81
2021/08/16 00:22:17;;;;;;;3.05;2.75;;;18.30;99.90;;;16.03;100.00;100660.66;2578657;30;133844;-82
2021/08/16 00:25:31;;;;;;;3.20;2.78;;;18.20;99.90;;;15.83;100.00;100676.53;2582585;30;135275;-82
2021/08/16 00:28:45;;;;;;;3.47;3.15;;;18.10;99.90;;;15.75;100.00;100693.63;2568243;30;134848;-81
2021/08/16 00:32:01;;;;;;;3.47;2.60;;;18.00;99.90;;;15.64;100.00;100691.38;2558671;30;133374;-82
2021/08/16 00:35:16;;;;;;;7.45;3.42;;;17.80;99.90;;;15.76;100.00;100714.22;2576190;30;133057;-84
2021/08/16 00:37:54;;;;;;;3.33;2.60;;;17.70;99.90;;;15.79;100.00;100721.09;2568388;30;136849;-84
2021/08/16 00:40:24;;;;;;;5.22;2.88;;;17.60;99.90;;;15.87;100.00;100693.19;2585181;30;133052;-82
2021/08/16 00:42:53;;;;;;;3.20;2.85;;;18.40;99.90;;;15.89;100.00;100681.22;2572478;38;132532;-81
2021/08/16 00:45:22;;;;;;;4.93;3.30;;;17.50;99.90;;;15.84;100.00;100675.50;2566805;30;132868;-80
2021/08/16 00:47:54;;;;;;;3.47;2.85;;;17.50;99.90;;;15.69;100.00;100670.09;2572908;30;133655;-82
2021/08/16 00:50:23;;;;;;;2.75;2.28;;;17.50;99.90;;;15.65;100.00;100674.19;2575479;30;136127;-81
2021/08/16 00:52:52;;;;;;;3.40;2.80;;;17.90;99.90;;;15.67;100.00;100680.22;2563659;30;132869;-84
2021/08/16 00:55:22;;;;;;;2.85;2.45;;;17.40;99.90;;;15.62;100.00;100679.09;2587857;30;133118;-83
2021/08/16 00:57:54;;;;;;;4.13;2.38;;;17.40;99.90;;;15.61;100.00;100680.09;2575629;30;136107;-84
2021/08/16 01:00:23;;;;;;;2.72;2.53;;;17.40;99.90;;;15.56;100.00;100677.97;2571506;30;133770;-84
2021/08/16 01:02:55;;;;;;;7.10;3.17;;;17.30;99.90;;;15.45;100.00;100663.00;2574939;30;133581;-85
2021/08/16 01:05:24;;;;;;;4.70;2.55;;;17.30;99.90;;;15.45;100.00;100672.97;2592572;30;132981;-85
2021/08/16 01:07:53;;;;;;;4.80;2.65;;;17.20;99.90;;;15.33;100.00;100679.81;2560975;30;133636;-85
2021/08/16 01:10:23;;;;;;;3.88;2.65;;;17.20;99.90;;;15.38;100.00;100683.63;2578727;30;134009;-80
2021/08/16 01:12:52;;;;;;;5.32;3.03;;;17.20;99.90;;;15.21;100.00;100673.13;2568361;38;135399;-84
2021/08/16 01:15:21;;;;;;;4.63;3.25;;;17.10;99.90;;;15.23;100.00;100681.88;2568748;30;133082;-80
2021/08/16 01:17:50;;;;;;;3.50;2.78;;;16.10;99.90;;;15.20;100.00;100714.59;2570265;38;137462;-83
2021/08/16 01:20:22;;;;;;;3.17;2.88;;;17.00;99.90;;;15.04;100.00;100718.22;2571474;30;134889;-84
2021/08/16 01:22:51;;;;;;;5.40;3.10;;;17.00;99.90;;;15.09;100.00;100729.28;2570848;30;134161;-83
2021/08/16 01:25:20;;;;;;;3.30;2.15;;;16.90;99.90;;;15.09;100.00;100737.38;2572718;30;133349;-80
2021/08/16 01:27:52;;;;;;;5.88;3.28;;;16.90;99.90;;;15.07;100.00;100734.88;2581764;30;133633;-84
2021/08/16 01:30:57;;;;;;;3.47;3.17;;;17.00;99.90;;;15.00;100.00;100739.28;2595325;30;133600;-82
2021/08/16 01:33:44;;;;;;;4.65;3.30;;;16.80;99.90;;;14.81;100.00;100738.88;2578978;30;132820;31
2021/08/16 01:36:58;;;;;;;3.58;3.28;;;16.80;99.90;;;14.74;100.00;100755.72;2577864;30;133665;-84
2021/08/16 01:40:12;;;;;;;5.05;3.10;;;16.70;99.90;;;14.74;100.00;100773.72;2561256;30;140009;-83
2021/08/16 01:43:28;;;;;;;6.95;3.63;;;16.60;99.90;;;14.74;100.00;100789.88;2575307;30;134327;-83
2021/08/16 01:46:42;;;;;;;3.47;2.83;;;16.60;99.90;;;14.65;100.00;100786.38;2578744;30;133694;-84
2021/08/16 01:49:56;;;;;;;4.85;2.95;;;16.70;99.90;;;14.66;100.00;100785.38;2608846;30;133946;-80
2021/08/16 01:53:09;;;;;;;3.78;3.28;;;16.40;99.90;;;14.52;100.00;100783.38;2561650;38;133702;-84
2021/08/16 01:56:23;;;;;;;3.95;3.35;;;16.40;99.90;;;14.54;100.00;100815.53;2588494;30;133741;-81
2021/08/16 01:59:40;;;;;;;5.43;2.78;;;16.30;99.90;;;14.43;100.00;100848.19;2573788;30;133364;-83
2021/08/16 02:02:54;;;;;;;3.17;2.67;;;16.30;99.90;;;14.58;100.00;100846.50;2597649;30;133493;-81
2021/08/16 02:06:07;;;;;;;4.45;3.20;;;16.20;99.90;;;14.24;100.00;100842.09;2566717;30;134039;-81
2021/08/16 02:09:21;;;;;;;3.97;2.90;;;16.10;99.90;;;14.17;100.00;100857.25;2581735;30;133719;-84
2021/08/16 02:12:35;;;;;;;4.10;3.22;;;16.10;99.90;;;14.12;100.00;100854.22;2604522;30;134534;-82
2021/08/16 02:15:52;;;;;;;4.43;3.58;;;16.00;99.90;;;14.13;100.00;100880.13;2580470;30;133752;-82
2021/08/16 02:19:05;;;;;;;4.80;3.58;;;15.90;99.90;;;14.13;100.00;100893.56;2565435;30;134206;-83
2021/08/16 02:22:19;;;;;;;3.38;3.08;;;15.90;99.90;;;14.06;100.00;100892.56;2571120;30;135520;-82
2021/08/16 02:25:32;;;;;;;6.22;4.20;;;15.80;99.90;;;14.03;100.00;100882.97;2574655;30;132497;-83
2021/08/16 02:28:46;;;;;;;3.60;3.20;;;15.70;99.90;;;14.03;100.00;100888.34;2586312;30;133432;-81
2021/08/16 02:32:03;;;;;;;3.85;3.55;;;15.70;99.90;;;13.86;100.00;100892.00;2590421;30;134404;-81
2021/08/16 02:35:16;;;;;;;4.70;3.60;;;15.60;99.90;;;13.77;100.00;100882.25;2557938;30;133903;-84
2021/08/16 02:38:30;;;;;;;3.97;3.53;;;15.60;99.90;;;13.82;100.00;100884.44;2570659;30;134757;-81
2021/08/16 02:41:44;;;;;;;6.18;3.47;;;15.50;99.90;;;13.63;100.00;100864.03;2587980;30;133158;-80
2021/08/16 02:44:57;;;;;;;4.85;3.90;;;15.40;99.90;;;13.62;100.00;100859.66;2574239;30;133992;-83
2021/08/16 02:48:15;;;;;;;4.55;4.07;;;15.30;99.90;;;13.66;100.00;100853.81;2567027;30;135702;-82
2021/08/16 02:51:29;;;;;;;5.85;4.15;;;15.30;99.90;;;13.59;100.00;100809.78;2587206;38;133328;-81
2021/08/16 02:54:42;;;;;;;4.33;3.60;;;15.20;99.90;;;13.64;100.00;100761.69;2584256;30;134481;-84
2021/08/16 02:57:56;;;;;;;3.70;3.30;;;15.10;99.90;;;13.70;100.00;100689.44;2569071;38;139384;-80
2021/08/16 03:01:09;;;;;;;4.30;3.80;;;15.10;99.90;;;13.72;100.00;100617.50;2570369;30;133757;-83
2021/08/16 03:03:49;;;;;;;6.43;3.83;;;15.10;99.90;;;13.63;100.00;100566.41;2567448;30;136001;-81
2021/08/16 03:06:18;;;;;;;7.77;3.83;;;15.10;99.90;;;13.73;100.00;100527.72;2563803;30;133105;-84
2021/08/16 03:09:26;;;;;;;3.47;3.17;;;15.90;99.90;;;13.76;100.00;100528.22;2604444;30;135194;-83
2021/08/16 03:12:40;;;;;;;4.72;3.30;;;15.00;99.90;;;13.71;100.00;100467.94;2584358;30;136058;-82
2021/08/16 03:15:53;;;;;;;4.33;3.50;;;15.40;99.90;;;13.62;100.00;100432.16;2557210;30;134828;-82
2021/08/16 03:19:09;;;;;;;5.70;4.17;;;15.00;99.90;;;13.52;100.00;100402.78;2597238;30;132898;-83
2021/08/16 03:22:22;;;;;;;4.50;3.87;;;15.00;99.90;;;13.49;100.00;100404.97;2563465;30;133173;-80
2021/08/16 03:25:36;;;;;;;3.60;3.27;;;15.00;99.90;;;13.45;100.00;100409.88;2590591;30;133980;-81
2021/08/16 03:28:49;;;;;;;5.10;3.40;;;15.00;99.90;;;13.48;100.00;100408.69;2578266;30;134633;-82
2021/08/16 03:32:03;;;;;;;4.30;3.43;;;15.00;99.90;;;13.39;100.00;100356.81;2591025;30;132802;-82
2021/08/16 03:37:56;;;;;;;3.63;3.20;;;14.90;99.90;;;13.44;100.00;100265.75;2584556;30;135332;-81
2021/08/16 03:41:09;;;;;;;5.13;3.63;;;14.90;99.90;;;13.56;100.00;100233.91;2583538;30;135616;-84
2021/08/16 03:44:22;;;;;;;3.93;2.67;;;15.80;99.90;;;13.60;100.00;100209.16;2603229;30;138434;-82
2021/08/16 03:47:36;;;;;;;4.97;3.27;;;15.40;99.90;;;13.61;100.00;100197.41;2597099;30;133958;-82
2021/08/16 03:50:49;;;;;;;4.70;3.73;;;15.00;99.90;;;13.56;100.00;100158.66;2594612;30;134313;-84
2021/08/16 03:54:06;;;;;;;4.93;3.43;;;15.10;99.90;;;13.63;100.00;100148.84;2586140;30;133685;-83
2021/08/16 03:57:19;;;;;;;6.07;3.23;;;15.10;99.90;;;13.55;100.00;100141.69;2573854;30;132817;-81
2021/08/16 04:00:35;;;;;;;5.50;4.13;;;15.10;99.90;;;13.71;100.00;100140.72;2568727;30;135559;-80
2021/08/16 04:03:48;;;;;;;4.47;3.83;;;15.80;99.90;;;13.69;100.00;100123.94;2575872;30;134742;-84
2021/08/16 04:09:43;;;;;;;3.93;3.40;;;15.10;99.90;;;13.59;100.00;100117.97;2581551;30;133322;-81
2021/08/16 04:12:56;;;;;;;7.80;3.58;;;15.20;99.90;;;13.58;100.00;100113.59;2587354;30;133956;-82
2021/08/16 04:16:09;;;;;;;6.80;3.30;;;15.20;99.90;;;13.71;100.00;100111.13;2570366;30;136238;-85
2021/08/16 04:19:22;;;;;;;4.33;3.10;;;15.20;99.90;;;13.75;100.00;100106.22;2572271;30;133249;-85
2021/08/16 04:22:35;;;;;;;4.87;3.30;;;15.30;99.90;;;13.95;100.00;100102.81;2571928;30;134524;-81
2021/08/16 04:25:52;;;;;;;4.15;3.53;;;15.40;99.90;;;13.94;100.00;100095.78;2577179;30;135393;-80
2021/08/16 04:29:06;;;;;;;5.40;4.00;;;15.40;99.90;;;14.07;100.00;100080.84;2565245;30;133954;-84
2021/08/16 04:32:19;;;;;;;8.02;3.75;;;15.50;99.90;;;14.05;100.00;100054.13;2576565;30;133003;-83
2021/08/16 04:35:33;;;;;;;4.93;4.43;;;15.50;99.90;;;13.95;100.00;100032.06;2606452;30;137286;-80
2021/08/16 04:38:47;;;;;;;4.47;3.90;;;15.50;99.90;;;14.38;100.00;100035.69;2569161;30;135605;-81
2021/08/16 04:42:03;;;;;;;6.33;3.67;;;15.50;99.90;;;14.65;100.00;100008.09;2582945;30;136229;-80
2021/08/16 04:45:18;;;;;;;5.10;3.53;;;15.60;99.90;;;14.51;100.00;99995.50;2570324;30;134301;-80
2021/08/16 04:47:56;;;;;;;6.35;3.20;;;15.60;99.90;;;14.29;100.00;99985.69;2580040;30;137553;-84
2021/08/16 04:50:25;;;;;;;4.78;2.83;;;15.70;99.90;;;14.23;100.00;99991.81;2575869;30;138435;-82
2021/08/16 04:52:53;;;;;;;8.70;3.03;;;15.70;99.90;;;14.22;100.00;100009.00;2586871;30;137473;-83
2021/08/16 04:55:22;;;;;;;3.90;3.55;;;15.70;99.90;;;14.16;100.00;100013.28;2589463;30;133616;-82
2021/08/16 04:57:54;;;;;;;3.65;3.38;;;15.80;99.90;;;14.27;100.00;100028.13;2564662;31;133367;-81
2021/08/16 05:00:25;;;;;;;5.90;3.95;;;15.80;99.90;;;14.39;100.00;100042.75;2580737;38;133795;-84
2021/08/16 05:02:54;;;;;;;2.92;2.63;;;15.80;99.90;;;14.38;100.00;100033.00;2568631;30;135533;-82
2021/08/16 05:05:26;;;;;;;6.25;3.45;;;15.80;99.90;;;14.56;100.00;100033.47;2565642;38;135934;-84
2021/08/16 05:07:57;;;;;;;6.38;3.17;;;15.90;99.90;;;14.55;100.00;100028.28;2573799;30;133239;-84
2021/08/16 05:10:28;;;;;;;6.15;3.00;;;15.90;99.90;;;14.83;100.00;100028.38;2577981;30;133732;-85
2021/08/16 05:13:02;;;;;;;4.20;3.65;;;17.00;99.90;;;14.90;100.00;100029.25;2585013;30;133500;-84
2021/08/16 05:15:31;;;;;;;4.28;3.40;;;16.00;99.90;;;15.03;100.00;100041.00;2583818;30;134658;-82
2021/08/16 05:18:02;;;;;;;3.50;3.08;;;16.10;99.90;;;15.04;100.00;100045.38;2589325;30;133490;-81
2021/08/16 05:20:35;;;;;;;3.83;3.20;;;16.10;99.90;;;15.05;100.00;100054.28;2579818;30;135711;-82
2021/08/16 05:23:04;;;;;;;4.35;3.47;;;16.20;99.90;;;15.16;100.00;100058.31;2567808;30;134004;-81
2021/08/16 05:25:34;;;;;;;3.53;3.22;;;16.30;99.90;;;15.28;100.00;100062.16;2566792;38;134490;-82
2021/08/16 05:28:06;;;;;;;5.88;3.35;;;16.40;99.90;;;15.67;100.00;100076.00;2593342;30;133785;-82
2021/08/16 05:30:36;;;;;;;4.32;3.15;;;16.40;99.90;;;16.19;100.00;100098.97;2564797;30;133876;31
2021/08/16 05:33:07;;;;;;;3.45;2.92;;;16.60;99.90;;;16.64;100.00;100102.13;2573776;30;134123;-83
2021/08/16 05:35:36;;;;;;;3.25;2.75;;;16.70;99.90;;;17.02;100.00;100103.28;2574216;30;136621;-86
2021/08/16 05:38:43;;;;;;;3.90;2.60;;;17.00;99.90;;;17.51;100.00;100085.88;2578944;30;132859;-80
2021/08/16 05:41:56;;;;;;;4.95;3.08;;;17.30;99.90;;;17.28;100.00;100056.53;2562201;38;134272;-83
2021/08/16 05:45:13;;;;;;;3.88;2.80;;;17.60;99.90;;;17.16;100.00;100041.97;2578358;30;133776;-82
2021/08/16 05:48:26;;;;;;;3.47;2.88;;;17.90;99.90;;;17.30;100.00;100035.53;2572510;30;134413;-82
2021/08/16 05:51:40;;;;;;;3.90;2.08;;;18.20;99.90;;;17.42;100.00;100035.75;2595241;38;132697;-80
2021/08/16 05:54:54;;;;;;;4.38;2.55;;;18.30;99.90;;;17.55;100.00;100036.56;2576266;30;133995;-81
2021/08/16 05:58:08;;;;;;;3.75;2.30;;;18.60;99.90;;;17.99;100.00;100040.47;2586769;30;135428;-83
2021/08/16 06:01:24;;;;;;;4.53;2.67;;;18.70;99.90;;;18.80;100.00;100016.38;2570097;38;134875;-84
2021/08/16 06:04:38;;;;;;;3.75;2.35;;;19.90;99.90;;;19.43;100.00;99999.22;2578212;30;134062;-82
2021/08/16 06:07:52;;;;;;;3.92;1.50;;;19.30;99.90;;;19.83;100.00;99983.41;2575361;30;134428;-83
2021/08/16 06:11:05;;;;;;;3.08;2.03;;;19.70;99.90;;;20.14;100.00;99955.25;2569867;30;134282;-83
2021/08/16 06:14:19;;;;;;;3.50;2.45;;;20.00;99.90;;;20.41;100.00;99924.81;2583896;30;134020;-83
2021/08/16 06:17:37;;;;;;;2.65;2.05;;;20.50;99.90;;;20.69;100.00;99913.31;2580142;30;133299;-81
2021/08/16 06:20:51;;;;;;;2.25;1.45;;;20.90;99.90;;;21.15;100.00;99893.50;2578701;30;133956;-82
2021/08/16 06:24:05;;;;;;;1.75;1.60;;;21.30;99.90;;;21.20;100.00;99881.13;2581568;30;135831;-86
2021/08/16 06:27:18;;;;;;;5.10;1.55;;;21.70;99.90;;;21.58;100.00;99875.16;2565424;30;133498;-84
2021/08/16 06:30:33;;;;;;;3.67;2.33;;;22.10;99.90;;;22.09;100.00;99860.69;2577624;30;132821;-82
2021/08/16 06:33:12;;;;;;;10.80;2.17;;;22.50;99.90;;;22.23;100.00;99845.72;2581853;30;134246;-85
2021/08/16 06:35:41;;;;;;;3.00;1.77;;;23.70;99.90;;;22.50;100.00;99811.28;2568612;30;135483;-84
2021/08/16 06:38:20;;;;;;;3.67;1.85;;;23.40;99.90;;;22.55;100.00;99786.84;2577324;30;135809;-85
2021/08/16 06:40:50;;;;;;;2.15;1.55;;;24.40;99.90;;;22.53;100.00;99779.97;2586304;30;132284;-82
2021/08/16 06:43:19;;;;;;;1.48;1.38;;;23.80;99.90;;;22.80;100.00;99780.97;2561644;30;133167;-83
2021/08/16 06:45:48;;;;;;;1.42;1.33;;;24.10;99.90;;;22.73;100.00;99769.41;2570324;38;133992;-87
2021/08/16 06:48:20;;;;;;;2.53;1.65;;;24.40;99.90;;;22.48;100.00;99767.09;2576542;30;134112;-84
2021/08/16 06:50:49;;;;;;;2.15;1.80;;;24.50;99.90;;;22.54;100.00;99770.72;2561357;30;133092;-83
2021/08/16 06:53:18;;;;;;;3.75;2.35;;;25.00;99.30;;;22.78;100.00;99768.66;2570395;30;133000;-82
2021/08/16 06:55:47;;;;;;;3.80;1.50;;;25.10;98.40;;;23.17;100.00;99778.50;2568525;30;133858;-85
2021/08/16 06:58:16;;;;;;;2.00;1.80;;;25.10;98.10;;;22.69;100.00;99773.69;2565747;30;133350;-83
2021/08/16 07:00:46;;;;;;;3.72;1.90;;;25.30;94.70;;;23.03;100.00;99779.94;2599994;30;132880;-85
2021/08/16 07:03:15;;;;;;;2.17;1.77;;;25.50;94.40;;;22.72;100.00;99778.66;2581389;30;133768;-81
2021/08/16 07:05:48;;;;;;;3.42;2.25;;;25.70;93.30;;;22.65;100.00;99791.63;2590842;30;133696;-83
2021/08/16 07:08:18;;;;;;;3.58;2.05;;;26.20;91.90;;;22.56;100.00;99807.56;2612001;30;134229;-85
2021/08/16 07:10:47;;;;;;;3.92;2.28;;;25.50;91.50;;;22.69;100.00;99819.22;2601006;30;133453;-83
2021/08/16 07:13:16;;;;;;;3.83;1.90;;;25.20;91.00;;;22.65;100.00;99837.97;2590562;30;134689;-83
2021/08/16 07:15:45;;;;;;;2.03;1.60;;;25.70;90.90;;;22.35;100.00;99843.75;2580509;30;132935;-82
2021/08/16 07:18:15;;;;;;;2.00;1.50;;;25.40;90.30;;;22.85;100.00;99851.16;2590419;30;134388;-86
2021/08/16 07:20:47;;;;;;;4.32;2.05;;;25.40;90.60;;;22.61;100.00;99827.81;2589443;30;132460;-83
2021/08/16 07:23:16;;;;;;;2.13;1.92;;;25.40;90.10;;;22.87;100.00;99835.38;2579069;30;134816;-85
2021/08/16 07:25:45;;;;;;;4.13;1.15;;;25.60;90.00;;;23.32;100.00;99832.47;2555649;30;133774;-84
2021/08/16 07:28:13;;;;;;;3.33;1.60;;;25.60;90.10;;;23.26;100.00;99823.38;2569959;30;133016;-82
2021/08/16 07:30:42;;;;;;;2.45;1.50;;;25.80;89.20;;;23.21;100.00;99808.84;2590017;30;133220;-84
2021/08/16 07:33:11;;;;;;;1.58;1.33;;;26.50;88.30;;;23.46;100.00;99798.25;2568665;30;133449;-84
2021/08/16 07:35:40;;;;;;;1.85;1.58;;;25.90;87.60;;;23.63;100.00;99784.56;2567420;30;133870;-82
2021/08/16 07:38:11;;;;;;;3.30;2.10;;;26.50;87.10;;;23.69;100.00;99712.53;2578352;30;133091;-82
2021/08/16 07:40:40;;;;;;;2.50;1.52;;;26.30;85.30;;;23.77;100.00;99638.28;2584322;38;132286;-83
2021/08/16 07:43:09;;;;;;;3.15;1.52;;;26.50;83.50;;;24.02;100.00;99615.81;2580956;30;133134;-86
2021/08/16 07:45:39;;;;;;;1.52;1.42;;;26.40;82.40;;;23.80;100.00;99585.06;2606534;30;132112;-84
2021/08/16 07:48:09;;;;;;;2.80;1.40;;;26.80;79.70;;;23.91;100.00;99586.78;2571445;30;132563;-84
2021/08/16 07:50:40;;;;;;;1.83;1.30;;;27.00;79.40;;;24.00;100.00;99561.41;2580464;38;132345;-83
2021/08/16 07:53:13;;;;;;;3.58;2.03;;;27.20;78.50;;;23.79;100.00;99577.94;2611804;30;133148;-84
2021/08/16 07:55:43;;;;;;;3.15;1.48;;;27.30;76.50;;;23.99;100.00;99561.69;2573802;30;132218;-83
2021/08/16 07:58:13;;;;;;;5.50;1.73;;;27.50;76.30;;;23.84;100.00;99547.94;2585264;30;132764;-84
2021/08/16 08:00:42;;;;;;;2.67;1.00;;;27.60;73.20;;;23.65;100.00;99539.31;2592023;30;131899;-83
2021/08/16 08:03:11;;;;;;;1.70;1.48;;;27.60;71.00;;;23.60;100.00;99556.50;2575456;30;132742;-83
2021/08/16 08:05:40;;;;;;;2.65;1.38;;;27.80;69.90;;;23.76;100.00;99548.41;2562254;30;132863;-83
2021/08/16 08:08:12;;;;;;;1.48;1.27;;;27.60;69.70;;;23.68;100.00;99566.13;2577945;30;132672;-83
2021/08/16 08:10:40;;;;;;;1.65;1.30;;;27.60;68.40;;;23.97;100.00;99558.41;2584837;30;132394;-84
2021/08/16 08:13:09;;;;;;;2.20;1.30;;;27.40;68.10;;;24.14;100.00;99561.78;2555853;30;135100;-84
2021/08/16 08:15:38;;;;;;;3.47;1.40;;;27.50;68.40;;;23.80;100.00;99557.72;2568733;30;132698;-85
2021/08/16 08:18:10;;;;;;;1.00;0.93;;;27.50;66.80;;;23.75;100.00;99549.50;2613029;30;131915;-83
2021/08/16 08:20:39;;;;;;;1.40;1.27;;;27.50;65.70;;;23.83;100.00;99565.41;2596080;30;132196;-83
2021/08/16 08:23:08;;;;;;;1.55;1.23;;;27.70;65.80;;;24.00;100.00;99552.41;2565284;30;134198;-85
2021/08/16 08:25:40;;;;;;;1.13;0.73;;;27.20;65.30;;;24.11;100.00;99551.38;2565888;30;134951;-85
2021/08/16 08:28:11;;;;;;;4.97;1.42;;;27.40;66.00;;;23.92;100.00;99558.38;2603244;30;126520;-84
2021/08/16 08:30:41;;;;;;;1.45;1.30;;;27.80;65.60;;;24.03;100.00;99562.81;2625643;30;124795;-83
2021/08/16 08:33:11;;;;;;;2.97;1.23;;;27.70;64.50;;;23.89;100.00;99556.97;2575472;30;132325;-83
2021/08/16 08:35:40;;;;;;;5.07;1.13;;;28.30;65.20;;;24.42;100.00;99552.41;2568797;30;132298;-83
2021/08/16 08:38:09;;;;;;;1.92;1.40;;;27.80;65.60;;;24.54;100.00;99543.97;2573748;38;133021;-82
2021/08/16 08:40:42;;;;;;;3.10;1.52;;;27.80;65.10;;;24.29;100.00;99545.50;2578270;30;132177;-82
2021/08/16 08:43:14;;;;;;;1.20;0.98;;;27.80;62.70;;;24.61;100.00;99534.41;2580602;30;132562;-84
2021/08/16 08:45:45;;;;;;;1.83;1.10;;;28.00;62.30;;;24.22;100.00;99530.41;2579445;38;131851;-83
2021/08/16 08:48:17;;;;;;;3.80;1.73;;;27.80;59.60;;;24.48;100.00;99545.06;2585553;30;132912;-82
2021/08/16 08:50:46;;;;;;;1.65;1.20;;;27.80;60.60;;;24.72;100.00;99537.22;2607214;30;130387;-83
2021/08/16 08:53:15;;;;;;;1.40;1.25;;;28.10;60.60;;;24.69;100.00;99533.91;2590737;30;128856;-84
2021/08/16 08:55:47;;;;;;;3.40;1.63;;;28.00;59.70;;;24.48;100.00;99534.13;2592243;30;131361;-82
2021/08/16 08:58:16;;;;;;;2.13;1.20;;;28.00;58.90;;;24.45;100.00;99542.84;2599098;30;132377;-82
2021/08/16 09:00:45;;;;;;;3.47;1.52;;;28.40;58.10;;;24.51;100.00;99530.81;2605926;30;126403;-85
2021/08/16 09:03:14;;;;;;;1.67;1.20;;;28.70;57.90;;;24.48;100.00;99534.91;2605108;31;125714;-85
2021/08/16 09:05:52;;;;;;;1.58;1.00;;;28.50;57.00;;;24.32;100.00;99525.84;2603334;30;131354;-83
2021/08/16 09:08:26;;;;;;;1.67;1.55;;;27.90;56.40;;;24.36;100.00;99539.00;2584544;30;132377;-84
2021/08/16 09:11:11;;;;;;;1.00;0.90;;;27.70;56.50;;;24.33;100.00;99538.44;2593055;30;131527;-82
2021/08/16 09:13:50;;;;;;;7.28;1.60;;;27.70;56.60;;;24.17;100.00;99533.94;2572594;30;133297;-81
2021/08/16 09:16:19;;;;;;;2.72;1.27;;;28.40;57.80;;;24.38;100.00;99531.31;2585777;30;132779;-83
2021/08/16 09:18:48;;;;;;;2.20;1.10;;;27.80;56.90;;;24.06;100.00;99542.34;2574728;30;134469;-83
2021/08/16 09:21:27;;;;;;;1.77;0.98;;;27.80;57.00;;;24.24;100.00;99542.72;2565871;31;132652;-83
2021/08/16 09:23:59;;;;;;;1.73;1.35;;;28.00;57.20;;;24.55;100.00;99551.91;2562573;30;133946;-83
2021/08/16 09:26:34;;;;;;;2.17;1.05;;;28.10;56.70;;;24.67;100.00;99547.03;2574971;30;133084;-81
2021/08/16 09:29:12;;;;;;;2.55;1.00;;;28.00;56.40;;;24.88;100.00;99552.56;2571274;30;132400;-84
2021/08/16 09:32:00;;;;;;;3.53;1.13;;;27.90;56.20;;;24.79;100.00;99535.84;2608637;30;132925;-82
2021/08/16 09:34:40;;;;;;;1.20;1.05;;;28.00;55.70;;;25.11;100.00;99532.94;2561219;30;133542;-81
2021/08/16 09:37:22;;;;;;;2.00;0.95;;;28.20;55.90;;;24.83;100.00;99536.97;2567673;30;132964;-84
2021/08/16 09:40:01;;;;;;;2.50;1.50;;;28.20;55.70;;;24.69;100.00;99541.31;2571272;30;133514;-84
2021/08/16 09:42:45;;;;;;;1.85;1.33;;;28.20;55.40;;;24.36;100.00;99534.31;2576161;30;132422;-84
2021/08/16 09:45:17;;;;;;;2.85;1.40;;;28.30;54.90;;;24.09;100.00;99533.63;2599917;30;132367;31
2021/08/16 09:47:48;;;;;;;3.28;1.02;;;28.10;53.80;;;24.30;100.00;99536.22;2616274;30;132916;-84
2021/08/16 09:50:17;;;;;;;2.38;1.35;;;28.20;54.30;;;24.63;100.00;99532.25;2589425;30;132683;-86
2021/08/16 09:52:46;;;;;;;3.47;1.60;;;27.80;55.00;;;24.61;100.00;99528.13;2584402;30;132736;-81
2021/08/16 09:55:15;;;;;;;2.20;1.10;;;27.50;54.50;;;24.48;100.00;99525.91;2582732;30;133663;-83
2021/08/16 09:57:46;;;;;;;1.20;1.00;;;27.80;54.60;;;24.09;100.00;99519.94;2593390;30;130423;-79
2021/08/16 10:00:16;;;;;;;2.28;1.20;;;28.30;54.60;;;24.39;100.00;99514.66;2587515;30;130987;-80
2021/08/16 10:02:45;;;;;;;2.42;1.55;;;27.60;54.40;;;24.57;100.00;99510.63;2599517;30;131963;-82
2021/08/16 10:05:14;;;;;;;1.80;1.58;;;28.10;55.20;;;24.23;100.00;99500.09;2573504;30;132200;-85
2021/08/16 10:07:45;;;;;;;1.40;0.93;;;27.50;55.00;;;24.16;100.00;99502.22;2574082;30;132877;-81
2021/08/16 10:10:14;;;;;;;2.17;1.17;;;27.70;55.20;;;24.12;100.00;99489.34;2563049;30;132051;-81
2021/08/16 10:12:47;;;;;;;2.67;1.58;;;27.80;55.50;;;24.39;100.00;99487.31;2567991;30;131760;-83
2021/08/16 10:15:17;;;;;;;1.20;1.15;;;27.70;55.80;;;24.28;100.00;99486.44;2593490;30;132055;-82
2021/08/16 10:17:48;;;;;;;2.25;0.98;;;27.60;55.40;;;24.52;100.00;99466.84;2568075;38;132343;-80
2021/08/16 10:20:18;;;;;;;1.63;1.13;;;27.70;55.40;;;24.89;100.00;99467.47;2563815;38;132967;-86
2021/08/16 10:22:47;;;;;;;7.32;1.33;;;27.90;55.40;;;24.82;100.00;99475.13;2581647;30;132844;-83
2021/08/16 10:25:19;;;;;;;3.00;1.45;;;28.10;55.20;;;24.81;100.00;99469.94;2578709;30;133507;-84
2021/08/16 10:27:50;;;;;;;1.38;1.08;;;28.60;55.00;;;24.06;100.00;99468.56;2595582;30;133585;-84
2021/08/16 10:30:20;;;;;;;2.53;1.42;;;28.30;54.00;;;24.69;100.00;99462.78;2564700;30;134722;-84
2021/08/16 10:32:49;;;;;;;1.48;1.10;;;28.40;54.20;;;25.03;100.00;99456.84;2568667;30;132565;-82
2021/08/16 10:35:19;;;;;;;1.98;1.45;;;28.50;54.20;;;24.53;100.00;99455.63;2580974;38;133397;-84
2021/08/16 10:37:49;;;;;;;3.20;1.48;;;28.50;52.90;;;24.61;100.00;99465.22;2584381;30;133060;-82
2021/08/16 10:40:22;;;;;;;3.50;1.15;;;28.80;52.30;;;24.59;100.00;99462.78;2568123;30;133209;-83
2021/08/16 10:42:56;;;;;;;2.33;1.27;;;28.40;51.80;;;24.78;100.00;99451.31;2559485;30;132272;-82
2021/08/16 10:45:31;;;;;;;2.28;1.60;;;28.40;51.70;;;25.03;100.00;99462.31;2568386;30;132898;-82
2021/08/16 10:48:09;;;;;;;3.45;1.50;;;28.70;51.30;;;25.47;100.00;99456.31;2566555;30;132302;-84
2021/08/16 10:50:39;;;;;;;3.15;1.75;;;28.60;51.30;;;24.90;100.00;99460.09;2579279;30;133044;-83
2021/08/16 10:53:11;;;;;;;2.75;1.60;;;28.70;50.60;;;24.79;100.00;99455.69;2572926;30;132036;-86
2021/08/16 10:55:42;;;;;;;2.17;1.63;;;29.30;51.00;;;24.36;100.00;99463.22;2576502;30;132317;-82
2021/08/16 10:58:14;;;;;;;2.40;1.33;;;28.70;50.10;;;24.37;100.00;99453.13;2561372;30;132127;-82
2021/08/16 11:00:44;;;;;;;2.15;1.65;;;28.50;50.50;;;24.82;100.00;99452.41;2564341;30;132760;-82
2021/08/16 11:03:13;;;;;;;4.03;2.17;;;28.50;50.90;;;24.58;100.00;99465.78;2575922;30;132428;-83
2021/08/16 11:05:43;;;;;;;1.63;1.27;;;29.00;50.90;;;24.72;100.00;99453.22;2590157;30;132530;-83
2021/08/16 11:08:12;;;;;;;1.30;0.98;;;28.50;50.40;;;24.88;100.00;99446.66;2580761;30;133413;-83
2021/08/16 11:10:43;;;;;;;4.35;1.33;;;28.30;50.50;;;24.95;100.00;99460.13;2570440;38;134900;-81
2021/08/16 11:13:21;;;;;;;3.45;1.27;;;28.70;50.80;;;24.74;100.00;99442.00;2585314;30;131981;-82
2021/08/16 11:15:52;;;;;;;2.85;1.38;;;28.60;49.90;;;24.78;100.00;99454.88;2569446;30;133119;-82
2021/08/16 11:18:23;;;;;;;1.80;1.30;;;28.30;49.90;;;24.61;100.00;99449.63;2575777;30;134028;-84
2021/08/16 11:21:00;;;;;;;1.02;0.73;;;28.20;49.70;;;24.87;100.00;99452.41;2584112;30;132589;-80
2021/08/16 11:23:31;;;;;;;1.85;1.27;;;28.20;50.10;;;25.13;100.00;99443.16;2560505;30;131656;-82
2021/08/16 11:26:01;;;;;;;1.92;1.15;;;28.30;49.70;;;25.22;100.00;99449.72;2594505;30;130869;-82